createdAt,value
2022-12-19T00:00:18.329Z,-0.98
2022-12-19T00:02:46.345Z,-1.16
2022-12-19T00:05:15.663Z,-0.96
2022-12-19T00:07:43.217Z,-0.91
2022-12-19T00:10:11.091Z,-0.91
2022-12-19T00:12:38.567Z,-0.78
2022-12-19T00:15:06.915Z,-0.66
2022-12-19T00:17:34.879Z,-0.66
2022-12-19T00:20:05.666Z,-0.65
2022-12-19T00:22:33.210Z,-0.62
2022-12-19T00:25:01.090Z,-0.64
2022-12-19T00:27:29.194Z,-0.66
2022-12-19T00:29:57.114Z,-0.70
2022-12-19T00:32:25.070Z,-0.80
2022-12-19T00:34:52.602Z,-0.83
2022-12-19T00:37:20.157Z,-0.69
2022-12-19T00:39:48.101Z,-0.77
2022-12-19T00:42:15.687Z,-0.76
2022-12-19T00:44:43.245Z,-0.79
2022-12-19T00:47:11.065Z,-0.75
2022-12-19T00:49:38.965Z,-0.94
2022-12-19T00:52:09.443Z,-0.90
2022-12-19T00:54:37.404Z,-0.80
2022-12-19T00:57:05.172Z,-0.95
2022-12-19T00:59:32.993Z,-1.41
2022-12-19T01:02:00.909Z,-1.10
2022-12-19T01:04:33.503Z,-1.15
2022-12-19T01:07:05.824Z,-0.99
2022-12-19T01:09:35.425Z,-1.10
2022-12-19T01:12:24.687Z,-1.22
2022-12-19T01:14:54.523Z,-1.18
2022-12-19T01:17:35.470Z,-1.18
2022-12-19T01:20:15.077Z,-1.32
2022-12-19T01:22:43.532Z,-1.46
2022-12-19T01:25:14.556Z,-1.44
2022-12-19T01:27:42.403Z,-1.40
2022-12-19T01:30:11.161Z,-1.52
2022-12-19T01:32:39.307Z,-1.27
2022-12-19T01:35:09.891Z,-1.36
2022-12-19T01:37:55.865Z,-1.14
2022-12-19T01:40:31.707Z,-1.11
2022-12-19T01:43:01.916Z,-1.12
2022-12-19T01:45:35.926Z,-1.08
2022-12-19T01:48:32.026Z,-1.04
2022-12-19T01:51:40.491Z,-1.21
2022-12-19T01:54:13.945Z,-1.08
2022-12-19T01:56:47.457Z,-1.09
2022-12-19T01:59:25.674Z,-1.12
2022-12-19T02:02:01.507Z,-0.97
2022-12-19T02:04:32.667Z,-1.07
2022-12-19T02:07:15.237Z,-1.04
2022-12-19T02:09:56.977Z,-1.02
2022-12-19T02:12:33.018Z,-1.04
2022-12-19T02:15:03.253Z,-1.05
2022-12-19T02:18:03.255Z,-1.30
2022-12-19T02:20:45.562Z,-1.48
2022-12-19T02:23:36.132Z,-1.60
2022-12-19T02:26:38.468Z,-1.64
2022-12-19T02:29:11.977Z,-1.64
2022-12-19T02:31:45.122Z,-1.75
2022-12-19T02:34:44.679Z,-1.69
2022-12-19T02:37:32.352Z,-1.94
2022-12-19T02:40:15.157Z,-1.77
2022-12-19T02:42:48.364Z,-1.87
2022-12-19T02:45:23.494Z,-2.42
2022-12-19T02:48:03.330Z,-2.20
2022-12-19T02:50:42.137Z,-2.06
2022-12-19T02:53:12.664Z,-2.12
2022-12-19T02:56:01.447Z,-2.00
2022-12-19T02:58:49.366Z,-1.97
2022-12-19T03:01:35.571Z,-2.15
2022-12-19T03:04:17.530Z,-2.03
2022-12-19T03:06:52.064Z,-2.06
2022-12-19T03:09:50.805Z,-2.02
2022-12-19T03:12:47.291Z,-2.02
2022-12-19T03:15:15.978Z,-1.99
2022-12-19T03:17:44.023Z,-2.09
2022-12-19T03:20:33.076Z,-2.15
2022-12-19T03:23:01.012Z,-2.03
2022-12-19T03:25:30.823Z,-1.93
2022-12-19T03:28:02.833Z,-1.83
2022-12-19T03:30:34.107Z,-1.98
2022-12-19T03:33:03.675Z,-1.91
2022-12-19T03:35:34.164Z,-1.93
2022-12-19T03:38:03.888Z,-1.95
2022-12-19T03:40:34.878Z,-2.01
2022-12-19T03:43:11.158Z,-1.96
2022-12-19T03:45:48.659Z,-2.03
2022-12-19T03:48:45.363Z,-2.06
2022-12-19T03:51:19.376Z,-2.21
2022-12-19T03:54:12.818Z,-2.15
2022-12-19T03:56:45.684Z,-2.20
2022-12-19T03:59:22.216Z,-1.95
2022-12-19T04:01:52.000Z,-1.97
2022-12-19T04:04:22.661Z,-1.96
2022-12-19T04:06:52.563Z,-2.04
2022-12-19T04:09:23.759Z,-2.04
2022-12-19T04:11:58.698Z,-1.96
2022-12-19T04:14:31.027Z,-1.92
2022-12-19T04:17:10.897Z,-1.79
2022-12-19T04:19:45.255Z,-1.73
2022-12-19T04:22:21.057Z,-1.88
2022-12-19T04:24:51.255Z,-1.77
2022-12-19T04:27:20.588Z,-1.71
2022-12-19T04:29:51.628Z,-1.67
2022-12-19T04:32:20.621Z,-1.60
2022-12-19T04:34:48.226Z,-1.61
2022-12-19T04:37:15.937Z,-1.68
2022-12-19T04:39:44.333Z,-1.52
2022-12-19T04:42:11.903Z,-1.46
2022-12-19T04:44:39.460Z,-1.40
2022-12-19T04:47:07.344Z,-1.36
2022-12-19T04:49:34.971Z,-1.28
2022-12-19T04:52:02.489Z,-1.35
2022-12-19T04:54:30.283Z,-1.54
2022-12-19T04:56:57.979Z,-1.64
2022-12-19T04:59:26.637Z,-1.79
2022-12-19T05:01:55.069Z,-1.77
2022-12-19T05:04:22.777Z,-1.94
2022-12-19T05:06:50.321Z,-1.96
2022-12-19T05:09:18.384Z,-2.10
2022-12-19T05:11:45.995Z,-2.09
2022-12-19T05:14:13.616Z,-2.14
2022-12-19T05:16:42.014Z,-2.17
2022-12-19T05:19:09.597Z,-2.16
2022-12-19T05:21:37.186Z,-2.27
2022-12-19T05:24:05.451Z,-2.14
2022-12-19T05:26:33.003Z,-2.05
2022-12-19T05:29:00.648Z,-1.94
2022-12-19T05:31:28.623Z,-1.89
2022-12-19T05:33:56.281Z,-1.99
2022-12-19T05:36:29.073Z,-2.02
2022-12-19T05:39:00.278Z,-1.87
2022-12-19T05:41:27.895Z,-1.88
2022-12-19T05:43:56.568Z,-1.85
2022-12-19T05:46:25.524Z,-1.74
2022-12-19T05:48:53.442Z,-1.71
2022-12-19T05:51:21.397Z,-2.05
2022-12-19T05:53:49.274Z,-1.90
2022-12-19T05:56:19.583Z,-2.15
2022-12-19T05:58:48.336Z,-1.65
2022-12-19T06:01:22.310Z,-1.56
2022-12-19T06:03:50.911Z,-1.43
2022-12-19T06:06:24.348Z,-1.41
2022-12-19T06:08:54.552Z,-1.36
2022-12-19T06:11:22.506Z,-1.34
2022-12-19T06:13:50.496Z,-1.28
2022-12-19T06:16:20.362Z,-1.41
2022-12-19T06:18:48.539Z,-1.58
2022-12-19T06:21:20.989Z,-1.50
2022-12-19T06:23:49.514Z,-1.34
2022-12-19T06:26:20.089Z,-1.44
2022-12-19T06:28:49.571Z,-1.55
2022-12-19T06:31:20.863Z,-1.46
2022-12-19T06:33:48.869Z,-1.62
2022-12-19T06:36:22.654Z,-1.56
2022-12-19T06:38:51.610Z,-1.42
2022-12-19T06:41:38.755Z,-1.35
2022-12-19T06:44:08.599Z,-1.82
2022-12-19T06:46:37.808Z,-1.64
2022-12-19T06:49:05.767Z,-1.69
2022-12-19T06:51:34.046Z,-1.66
2022-12-19T06:54:01.907Z,-1.98
2022-12-19T06:56:35.265Z,-1.99
2022-12-19T06:59:03.577Z,-1.22
2022-12-19T07:02:08.589Z,-1.23
2022-12-19T07:04:42.174Z,-1.27
2022-12-19T07:07:09.901Z,-1.05
2022-12-19T07:09:37.931Z,-1.09
2022-12-19T07:12:08.516Z,-1.04
2022-12-19T07:14:36.745Z,-1.08
2022-12-19T07:17:05.006Z,-0.88
2022-12-19T07:19:34.096Z,-0.90
2022-12-19T07:22:04.168Z,-0.73
2022-12-19T07:24:34.253Z,-0.61
2022-12-19T07:27:02.254Z,-0.65
2022-12-19T07:29:29.840Z,-0.66
2022-12-19T07:31:57.807Z,-0.64
2022-12-19T07:34:25.454Z,-0.45
2022-12-19T07:36:53.070Z,-0.65
2022-12-19T07:39:21.992Z,-0.30
2022-12-19T07:41:50.075Z,-0.10
2022-12-19T07:44:27.231Z,-0.12
2022-12-19T07:46:55.189Z,-0.22
2022-12-19T07:49:23.086Z,-0.23
2022-12-19T07:51:50.753Z,-0.24
2022-12-19T07:54:18.707Z,-0.04
2022-12-19T07:56:46.438Z,-0.30
2022-12-19T07:59:14.153Z,-0.22
2022-12-19T08:01:42.189Z,-0.10
2022-12-19T08:04:10.529Z,-0.03
2022-12-19T08:06:41.413Z,-0.18
2022-12-19T08:09:09.247Z,0.03
2022-12-19T08:11:37.117Z,0.36
2022-12-19T08:14:04.618Z,0.39
2022-12-19T08:16:43.912Z,0.46
2022-12-19T08:19:23.481Z,0.74
2022-12-19T08:21:54.782Z,0.73
2022-12-19T08:24:22.681Z,0.46
2022-12-19T08:26:50.256Z,0.40
2022-12-19T08:29:17.853Z,0.64
2022-12-19T08:31:45.788Z,0.42
2022-12-19T08:34:13.346Z,0.27
2022-12-19T08:36:40.989Z,0.28
2022-12-19T08:39:08.995Z,0.48
2022-12-19T08:41:38.485Z,0.52
2022-12-19T08:44:07.833Z,0.47
2022-12-19T08:46:35.759Z,0.58
2022-12-19T08:49:03.509Z,0.68
2022-12-19T08:51:31.171Z,0.64
2022-12-19T08:53:59.772Z,0.92
2022-12-19T08:56:27.308Z,1.45
2022-12-19T08:58:56.142Z,1.36
2022-12-19T09:01:25.915Z,1.66
2022-12-19T09:04:29.877Z,1.54
2022-12-19T09:06:41.453Z,1.91
2022-12-19T09:09:09.358Z,2.03
2022-12-19T09:11:46.669Z,2.66
2022-12-19T09:14:21.043Z,2.88
2022-12-19T09:16:49.228Z,3.15
2022-12-19T09:19:17.275Z,3.40
2022-12-19T09:21:45.156Z,3.23
2022-12-19T09:24:12.733Z,3.50
2022-12-19T09:26:42.176Z,3.53
2022-12-19T09:29:19.848Z,3.86
2022-12-19T09:31:56.207Z,4.38
2022-12-19T09:34:38.663Z,4.92
2022-12-19T09:37:09.292Z,5.09
2022-12-19T09:39:43.421Z,5.45
2022-12-19T09:42:23.550Z,5.27
2022-12-19T09:45:21.478Z,5.17
2022-12-19T09:48:01.965Z,5.73
2022-12-19T09:50:35.471Z,5.49
2022-12-19T09:53:10.840Z,5.15
2022-12-19T09:55:41.497Z,5.38
2022-12-19T09:58:35.557Z,4.86
2022-12-19T10:01:13.355Z,4.63
2022-12-19T10:03:51.458Z,4.86
2022-12-19T10:07:12.405Z,4.75
2022-12-19T10:10:51.565Z,5.38
2022-12-19T10:12:42.675Z,5.18
2022-12-19T10:15:58.763Z,5.23
2022-12-19T10:18:50.991Z,4.78
2022-12-19T10:22:08.121Z,4.38
2022-12-19T10:25:08.592Z,5.42
2022-12-19T10:28:06.202Z,6.00
2022-12-19T10:30:41.314Z,6.06
2022-12-19T10:33:39.971Z,6.14
2022-12-19T10:36:11.253Z,5.08
2022-12-19T10:39:24.997Z,5.31
2022-12-19T10:41:57.800Z,5.09
2022-12-19T10:44:30.607Z,5.42
2022-12-19T10:46:58.317Z,4.56
2022-12-19T10:49:27.540Z,4.49
2022-12-19T10:52:07.940Z,3.80
2022-12-19T10:54:38.608Z,3.44
2022-12-19T10:57:26.807Z,4.04
2022-12-19T11:00:18.974Z,4.09
2022-12-19T11:02:47.778Z,3.96
2022-12-19T11:05:57.742Z,3.75
2022-12-19T11:08:33.435Z,3.72
2022-12-19T11:12:52.905Z,3.56
2022-12-19T11:19:54.237Z,3.39
2022-12-19T11:21:49.164Z,3.27
2022-12-19T11:28:47.449Z,3.40
2022-12-19T11:29:31.090Z,3.47
2022-12-19T11:30:45.502Z,3.29
2022-12-19T11:30:48.001Z,2.95
2022-12-19T11:34:25.175Z,3.10
2022-12-19T11:37:21.474Z,2.82
2022-12-19T11:40:03.300Z,2.76
2022-12-19T11:43:04.414Z,2.90
2022-12-19T11:45:59.115Z,2.75
2022-12-19T11:48:44.450Z,2.24
2022-12-19T11:51:18.426Z,2.76
2022-12-19T11:54:02.402Z,3.00
2022-12-19T11:56:30.320Z,2.76
2022-12-19T11:59:02.551Z,2.90
2022-12-19T12:01:47.716Z,2.69
2022-12-19T12:04:46.531Z,2.62
2022-12-19T12:07:39.037Z,2.49
2022-12-19T12:15:00.072Z,2.04
2022-12-19T12:21:06.620Z,2.47
2022-12-19T12:27:01.855Z,2.60
2022-12-19T12:31:06.542Z,2.33
2022-12-19T12:31:06.910Z,2.52
2022-12-19T12:31:21.234Z,2.21
2022-12-19T12:31:40.917Z,2.45
2022-12-19T12:35:34.978Z,2.24
2022-12-19T12:38:48.027Z,2.02
2022-12-19T12:41:42.788Z,2.32
2022-12-19T12:44:12.168Z,2.26
2022-12-19T12:46:46.276Z,2.22
2022-12-19T12:49:37.128Z,2.32
2022-12-19T12:52:11.259Z,2.40
2022-12-19T12:54:43.997Z,2.28
2022-12-19T12:57:19.830Z,2.54
2022-12-19T13:00:21.159Z,2.47
2022-12-19T13:03:05.210Z,2.49
2022-12-19T13:05:54.138Z,2.49
2022-12-19T13:08:38.602Z,2.50
2022-12-19T13:11:38.131Z,2.60
2022-12-19T13:14:26.886Z,2.81
2022-12-19T13:16:54.849Z,2.26
2022-12-19T13:19:31.552Z,2.47
2022-12-19T13:22:05.138Z,2.74
2022-12-19T13:24:54.088Z,2.80
2022-12-19T13:27:21.586Z,2.78
2022-12-19T13:30:16.077Z,2.91
2022-12-19T13:32:43.580Z,2.72
2022-12-19T13:35:50.727Z,2.93
2022-12-19T13:39:56.899Z,3.04
2022-12-19T13:40:57.819Z,2.39
2022-12-19T13:43:46.406Z,2.94
2022-12-19T13:46:42.886Z,2.90
2022-12-19T13:49:25.141Z,2.53
2022-12-19T13:51:58.860Z,2.91
2022-12-19T13:54:32.445Z,2.72
2022-12-19T13:57:09.297Z,2.86
2022-12-19T13:59:40.385Z,2.93
2022-12-19T14:02:31.587Z,2.85
2022-12-19T14:05:00.879Z,2.80
2022-12-19T14:07:39.430Z,2.75
2022-12-19T14:11:37.121Z,2.81
2022-12-19T14:13:48.931Z,2.80
2022-12-19T14:16:18.569Z,2.45
2022-12-19T14:18:50.103Z,2.38
2022-12-19T14:22:08.589Z,2.52
2022-12-19T14:24:10.393Z,2.50
2022-12-19T14:28:19.382Z,2.39
2022-12-19T14:29:45.487Z,2.79
2022-12-19T14:33:44.839Z,2.93
2022-12-19T14:36:06.350Z,3.07
2022-12-19T14:39:24.522Z,2.77
2022-12-19T14:41:09.146Z,2.71
2022-12-19T14:43:59.774Z,2.96
2022-12-19T14:54:00.630Z,3.29
2022-12-19T14:54:01.245Z,3.36
2022-12-19T14:54:24.402Z,3.30
2022-12-19T14:56:17.603Z,2.87
2022-12-19T14:58:55.745Z,2.66
2022-12-19T15:01:32.627Z,2.80
2022-12-19T15:04:51.140Z,2.91
2022-12-19T15:07:07.232Z,2.76
2022-12-19T15:11:04.267Z,2.61
2022-12-19T15:14:48.068Z,2.63
2022-12-19T15:16:25.142Z,2.61
2022-12-19T15:18:57.101Z,2.64
2022-12-19T15:21:24.938Z,2.78
2022-12-19T15:23:52.802Z,2.16
2022-12-19T15:26:33.272Z,2.68
2022-12-19T15:29:03.502Z,2.38
2022-12-19T15:31:39.157Z,2.26
2022-12-19T15:34:36.279Z,2.41
2022-12-19T15:37:05.843Z,2.31
2022-12-19T15:39:34.354Z,1.95
2022-12-19T15:42:02.544Z,2.40
2022-12-19T15:44:39.536Z,2.56
2022-12-19T15:47:33.109Z,2.16
2022-12-19T15:50:03.965Z,2.41
2022-12-19T15:52:32.107Z,2.62
2022-12-19T15:54:59.726Z,1.72
2022-12-19T15:57:32.501Z,1.77
2022-12-19T16:00:04.263Z,1.92
2022-12-19T16:03:04.582Z,2.33
2022-12-19T16:05:22.826Z,1.87
2022-12-19T16:07:50.807Z,2.08
2022-12-19T16:10:18.751Z,1.78
2022-12-19T16:12:51.181Z,2.11
2022-12-19T16:15:18.727Z,2.15
2022-12-19T16:17:46.933Z,2.56
2022-12-19T16:20:17.392Z,2.58
2022-12-19T16:22:44.907Z,2.62
2022-12-19T16:25:13.653Z,2.47
2022-12-19T16:27:42.261Z,2.39
2022-12-19T16:30:22.035Z,2.24
2022-12-19T16:32:50.753Z,2.22
2022-12-19T16:35:40.164Z,1.93
2022-12-19T16:38:09.871Z,1.72
2022-12-19T16:40:37.571Z,1.56
2022-12-19T16:43:12.605Z,1.56
2022-12-19T16:45:40.559Z,1.23
2022-12-19T16:48:19.240Z,1.12
2022-12-19T16:50:48.237Z,1.25
2022-12-19T16:53:16.020Z,1.18
2022-12-19T16:55:44.906Z,1.19
2022-12-19T16:58:20.216Z,1.15
2022-12-19T17:00:48.302Z,1.06
2022-12-19T17:03:22.339Z,1.06
2022-12-19T17:05:49.965Z,0.95
2022-12-19T17:08:18.820Z,0.95
2022-12-19T17:10:47.593Z,0.98
2022-12-19T17:13:17.643Z,1.02
2022-12-19T17:15:49.680Z,1.00
2022-12-19T17:18:27.057Z,0.97
2022-12-19T17:20:55.351Z,0.91
2022-12-19T17:23:25.328Z,1.01
2022-12-19T17:25:54.771Z,0.88
2022-12-19T17:28:23.233Z,0.89
2022-12-19T17:30:54.330Z,0.91
2022-12-19T17:33:33.284Z,0.84
2022-12-19T17:36:01.847Z,0.79
2022-12-19T17:38:29.997Z,0.67
2022-12-19T17:40:57.797Z,0.70
2022-12-19T17:43:25.670Z,0.64
2022-12-19T17:45:53.808Z,0.67
2022-12-19T17:48:30.589Z,0.50
2022-12-19T17:50:58.678Z,0.56
2022-12-19T17:53:26.525Z,0.59
2022-12-19T17:55:54.121Z,0.75
2022-12-19T17:58:22.075Z,0.55
2022-12-19T18:00:51.356Z,0.76
2022-12-19T18:03:24.909Z,0.69
2022-12-19T18:05:54.791Z,0.73
2022-12-19T18:08:31.373Z,0.83
2022-12-19T18:11:01.495Z,0.86
2022-12-19T18:13:30.778Z,0.43
2022-12-19T18:16:03.121Z,0.88
2022-12-19T18:18:35.443Z,1.04
2022-12-19T18:21:04.336Z,1.13
2022-12-19T18:23:32.730Z,1.10
2022-12-19T18:26:02.496Z,1.19
2022-12-19T18:28:30.756Z,1.15
2022-12-19T18:31:03.191Z,1.17
2022-12-19T18:33:38.013Z,1.28
2022-12-19T18:36:07.638Z,1.35
2022-12-19T18:38:35.229Z,1.34
2022-12-19T18:41:03.020Z,1.27
2022-12-19T18:43:32.191Z,1.37
2022-12-19T18:45:59.754Z,1.40
2022-12-19T18:48:33.005Z,1.39
2022-12-19T18:51:01.458Z,0.89
2022-12-19T18:53:35.382Z,1.26
2022-12-19T18:56:06.214Z,1.51
2022-12-19T18:58:34.638Z,1.15
2022-12-19T19:01:05.179Z,1.44
2022-12-19T19:03:39.574Z,1.52
2022-12-19T19:06:18.660Z,1.66
2022-12-19T19:08:47.332Z,1.39
2022-12-19T19:11:16.365Z,1.34
2022-12-19T19:13:44.623Z,1.58
2022-12-19T19:16:22.601Z,1.04
2022-12-19T19:18:54.361Z,1.67
2022-12-19T19:21:25.625Z,1.62
2022-12-19T19:23:59.017Z,1.54
2022-12-19T19:26:26.913Z,1.55
2022-12-19T19:28:54.744Z,1.43
2022-12-19T19:31:27.936Z,1.34
2022-12-19T19:34:00.810Z,1.34
2022-12-19T19:36:31.077Z,1.34
2022-12-19T19:38:59.402Z,1.25
2022-12-19T19:41:29.956Z,1.28
2022-12-19T19:43:59.746Z,1.21
2022-12-19T19:46:28.111Z,0.99
2022-12-19T19:48:56.889Z,1.15
2022-12-19T19:51:24.908Z,0.82
2022-12-19T19:53:53.957Z,0.93
2022-12-19T19:56:21.558Z,1.21
2022-12-19T19:58:49.291Z,1.25
2022-12-19T20:01:17.560Z,0.76
2022-12-19T20:03:46.353Z,0.84
2022-12-19T20:06:14.561Z,1.31
2022-12-19T20:08:42.541Z,1.06
2022-12-19T20:11:11.144Z,0.22
2022-12-19T20:13:39.380Z,0.78
2022-12-19T20:16:11.153Z,0.66
2022-12-19T20:18:48.849Z,1.06
2022-12-19T20:21:18.313Z,0.83
2022-12-19T20:23:46.533Z,0.70
2022-12-19T20:26:16.472Z,1.19
2022-12-19T20:28:49.437Z,1.16
2022-12-19T20:31:19.917Z,1.23
2022-12-19T20:33:48.633Z,1.29
2022-12-19T20:36:17.253Z,0.96
2022-12-19T20:38:47.011Z,0.51
2022-12-19T20:41:16.224Z,0.99
2022-12-19T20:43:44.899Z,0.89
2022-12-19T20:46:15.869Z,0.66
2022-12-19T20:48:43.883Z,0.73
2022-12-19T20:51:13.176Z,0.78
2022-12-19T20:53:44.331Z,0.76
2022-12-19T20:56:18.102Z,0.77
2022-12-19T20:58:46.581Z,0.84
2022-12-19T21:01:20.159Z,0.85
2022-12-19T21:03:49.059Z,0.74
2022-12-19T21:06:19.715Z,0.77
2022-12-19T21:08:47.991Z,0.84
2022-12-19T21:11:15.942Z,0.76
2022-12-19T21:13:44.027Z,0.37
2022-12-19T21:16:14.900Z,0.82
2022-12-19T21:18:44.394Z,1.02
2022-12-19T21:21:18.448Z,1.03
2022-12-19T21:23:47.168Z,0.85
2022-12-19T21:26:15.059Z,0.68
2022-12-19T21:28:43.353Z,0.81
2022-12-19T21:31:26.544Z,0.78
2022-12-19T21:33:56.156Z,0.78
2022-12-19T21:36:25.681Z,0.23
2022-12-19T21:38:55.664Z,0.26
2022-12-19T21:41:23.874Z,0.44
2022-12-19T21:43:53.923Z,0.48
2022-12-19T21:46:24.972Z,0.36
2022-12-19T21:48:55.219Z,0.34
2022-12-19T21:51:26.031Z,0.26
2022-12-19T21:53:55.974Z,0.17
2022-12-19T21:56:24.886Z,0.14
2022-12-19T21:58:54.878Z,0.14
2022-12-19T22:01:24.084Z,0.07
2022-12-19T22:03:52.784Z,0.02
2022-12-19T22:06:27.818Z,0.16
2022-12-19T22:08:56.714Z,0.10
2022-12-19T22:11:25.272Z,0.09
2022-12-19T22:13:53.499Z,0.09
2022-12-19T22:16:21.614Z,0.12
2022-12-19T22:18:52.780Z,0.03
2022-12-19T22:21:20.819Z,0.09
2022-12-19T22:23:48.748Z,0.09
2022-12-19T22:26:23.146Z,-0.02
2022-12-19T22:28:55.620Z,-0.58
2022-12-19T22:31:28.974Z,0.21
2022-12-19T22:33:59.223Z,0.41
2022-12-19T22:36:29.306Z,-0.14
2022-12-19T22:38:59.201Z,0.09
2022-12-19T22:41:27.543Z,0.42
2022-12-19T22:43:55.639Z,-0.06
2022-12-19T22:46:32.806Z,0.13
2022-12-19T22:49:03.359Z,0.01
2022-12-19T22:51:33.802Z,0.34
2022-12-19T22:54:01.484Z,0.33
2022-12-19T22:56:30.967Z,0.39
2022-12-19T22:59:03.341Z,0.49
2022-12-19T23:01:34.462Z,0.56
2022-12-19T23:04:04.521Z,0.40
2022-12-19T23:06:34.263Z,0.58
2022-12-19T23:09:03.759Z,-0.08
2022-12-19T23:11:35.350Z,0.37
2022-12-19T23:14:06.264Z,0.56
2022-12-19T23:16:34.439Z,0.35
2022-12-19T23:19:02.183Z,0.26
2022-12-19T23:21:30.065Z,0.50
2022-12-19T23:23:57.685Z,0.69
2022-12-19T23:26:31.825Z,0.28
2022-12-19T23:29:03.057Z,0.30
2022-12-19T23:31:31.190Z,0.22
2022-12-19T23:33:59.848Z,-0.05
2022-12-19T23:37:08.405Z,-0.19
2022-12-19T23:39:16.735Z,-0.10
2022-12-19T23:41:44.513Z,-0.13
2022-12-19T23:44:12.374Z,-0.32
2022-12-19T23:46:40.378Z,-0.57
2022-12-19T23:49:08.050Z,-0.69
2022-12-19T23:51:35.575Z,-0.61
2022-12-19T23:54:03.617Z,-0.63
2022-12-19T23:56:32.535Z,-0.69
2022-12-19T23:59:00.940Z,-0.32
